createdAt,value
2019-02-23T00:01:13.305Z,80.90
2019-02-23T00:04:21.798Z,80.30
2019-02-23T00:07:30.657Z,80.30
2019-02-23T00:10:40.203Z,80.50
2019-02-23T00:13:48.781Z,80.50
2019-02-23T00:16:57.406Z,80.10
2019-02-23T00:20:07.841Z,81.20
2019-02-23T00:23:16.300Z,81.40
2019-02-23T00:26:24.769Z,81.80
2019-02-23T00:29:33.262Z,81.40
2019-02-23T00:32:52.066Z,81.30
2019-02-23T00:36:00.748Z,81.30
2019-02-23T00:39:09.415Z,80.90
2019-02-23T00:42:17.980Z,81.10
2019-02-23T00:45:26.573Z,80.90
2019-02-23T00:48:35.156Z,80.50
2019-02-23T00:51:43.747Z,80.50
2019-02-23T00:55:02.653Z,81.70
2019-02-23T00:58:12.750Z,82.00
2019-02-23T01:01:21.239Z,81.80
2019-02-23T01:04:30.059Z,81.90
2019-02-23T01:07:38.766Z,83.10
2019-02-23T01:10:57.463Z,82.40
2019-02-23T01:13:57.631Z,82.80
2019-02-23T01:17:16.420Z,82.70
2019-02-23T01:20:25.027Z,82.60
2019-02-23T01:23:33.591Z,82.60
2019-02-23T01:26:42.195Z,82.80
2019-02-23T01:29:50.777Z,83.20
2019-02-23T01:32:59.265Z,83.20
2019-02-23T01:36:18.245Z,83.30
2019-02-23T01:39:26.832Z,83.10
2019-02-23T01:42:35.530Z,83.10
2019-02-23T01:45:44.102Z,83.20
2019-02-23T01:48:52.700Z,83.50
2019-02-23T01:52:01.280Z,83.70
2019-02-23T01:55:10.764Z,83.60
2019-02-23T01:58:19.271Z,84.00
2019-02-23T02:01:28.076Z,84.10
2019-02-23T02:04:36.713Z,84.40
2019-02-23T02:07:45.291Z,84.50
2019-02-23T02:11:03.978Z,85.20
2019-02-23T02:14:12.581Z,85.70
2019-02-23T02:17:21.122Z,86.00
2019-02-23T02:20:29.756Z,85.50
2019-02-23T02:23:39.700Z,85.20
2019-02-23T02:26:58.485Z,86.00
2019-02-23T02:30:10.912Z,85.80
2019-02-23T02:33:19.473Z,86.30
2019-02-23T02:36:29.037Z,86.20
2019-02-23T02:39:37.634Z,86.90
2019-02-23T02:42:46.395Z,86.50
2019-02-23T02:45:54.972Z,86.80
2019-02-23T02:49:13.874Z,86.20
2019-02-23T02:52:22.442Z,85.30
2019-02-23T02:55:31.020Z,85.30
2019-02-23T02:58:40.735Z,85.70
2019-02-23T03:01:59.590Z,86.00
2019-02-23T03:05:08.227Z,86.00
2019-02-23T03:08:16.486Z,85.70
2019-02-23T03:11:25.048Z,85.80
2019-02-23T03:14:43.798Z,86.20
2019-02-23T03:18:03.132Z,85.80
2019-02-23T03:21:11.725Z,84.80
2019-02-23T03:24:20.318Z,85.10
2019-02-23T03:27:40.066Z,85.10
2019-02-23T03:30:48.657Z,85.00
2019-02-23T03:33:57.234Z,84.80
2019-02-23T03:37:05.807Z,85.70
2019-02-23T03:40:14.292Z,84.90
2019-02-23T03:43:33.038Z,85.10
2019-02-23T03:46:41.633Z,84.20
2019-02-23T03:49:50.218Z,84.70
2019-02-23T03:52:58.792Z,85.40
2019-02-23T03:56:07.376Z,85.20
2019-02-23T03:59:16.083Z,85.50
2019-02-23T04:02:34.783Z,85.90
2019-02-23T04:05:43.370Z,86.00
2019-02-23T04:08:52.032Z,85.90
2019-02-23T04:12:00.610Z,86.50
2019-02-23T04:15:09.405Z,85.70
2019-02-23T04:18:18.079Z,85.70
2019-02-23T04:21:26.667Z,85.90
2019-02-23T04:24:35.222Z,85.60
2019-02-23T04:27:54.153Z,86.40
2019-02-23T04:31:22.012Z,86.20
2019-02-23T04:34:30.573Z,86.40
2019-02-23T04:37:39.055Z,86.30
2019-02-23T04:40:47.676Z,86.40
2019-02-23T04:43:56.317Z,86.60
2019-02-23T04:47:15.119Z,86.90
2019-02-23T04:50:23.728Z,86.70
2019-02-23T04:53:32.308Z,86.60
2019-02-23T04:56:41.190Z,86.50
2019-02-23T04:59:49.667Z,85.90
2019-02-23T05:02:58.274Z,85.50
2019-02-23T05:06:07.043Z,86.20
2019-02-23T05:09:15.149Z,86.20
2019-02-23T05:12:23.932Z,85.40
2019-02-23T05:15:32.483Z,85.40
2019-02-23T05:18:41.137Z,86.20
2019-02-23T05:21:49.741Z,86.10
2019-02-23T05:25:00.573Z,86.70
2019-02-23T05:28:09.187Z,87.30
2019-02-23T05:31:17.774Z,87.80
2019-02-23T05:34:26.242Z,88.00
2019-02-23T05:37:34.837Z,87.50
2019-02-23T05:40:53.792Z,87.90
2019-02-23T05:44:21.688Z,88.70
2019-02-23T05:47:30.283Z,88.60
2019-02-23T05:50:38.761Z,88.10
2019-02-23T05:53:47.537Z,88.10
2019-02-23T05:56:56.168Z,88.00
2019-02-23T06:00:06.039Z,88.00
2019-02-23T06:03:14.529Z,88.00
2019-02-23T06:06:23.110Z,87.80
2019-02-23T06:09:31.721Z,88.20
2019-02-23T06:12:40.419Z,88.00
2019-02-23T06:15:49.081Z,87.70
2019-02-23T06:18:57.686Z,87.10
2019-02-23T06:22:06.305Z,87.50
2019-02-23T06:25:25.011Z,87.40
2019-02-23T06:28:33.684Z,87.50
2019-02-23T06:31:42.254Z,88.00
2019-02-23T06:34:50.849Z,88.20
2019-02-23T06:37:59.452Z,88.40
2019-02-23T06:41:08.127Z,87.90
2019-02-23T06:44:16.746Z,88.20
2019-02-23T06:47:35.582Z,88.40
2019-02-23T06:50:44.161Z,88.50
2019-02-23T06:53:52.756Z,88.50
2019-02-23T06:57:01.608Z,88.70
2019-02-23T07:00:14.007Z,88.10
2019-02-23T07:03:22.501Z,88.40
2019-02-23T07:06:31.107Z,90.00
2019-02-23T07:09:39.335Z,89.10
2019-02-23T07:12:58.475Z,89.30
2019-02-23T07:16:07.110Z,90.00
2019-02-23T07:19:15.619Z,89.00
2019-02-23T07:22:24.195Z,89.70
2019-02-23T07:25:31.382Z,89.60
2019-02-23T07:28:39.879Z,89.60
2019-02-23T07:31:48.456Z,89.10
2019-02-23T07:34:57.049Z,89.10
2019-02-23T07:38:16.279Z,88.80
2019-02-23T07:41:35.244Z,87.90
2019-02-23T07:44:43.772Z,87.80
2019-02-23T07:47:52.352Z,88.20
2019-02-23T07:51:00.955Z,87.60
2019-02-23T07:54:09.454Z,86.40
2019-02-23T07:57:31.263Z,85.90
2019-02-23T08:00:40.864Z,85.70
2019-02-23T08:03:49.357Z,85.20
2019-02-23T08:07:08.218Z,84.10
2019-02-23T08:10:16.817Z,84.70
2019-02-23T08:13:25.393Z,84.00
2019-02-23T08:16:33.889Z,83.20
2019-02-23T08:19:42.497Z,82.60
2019-02-23T08:22:51.094Z,82.70
2019-02-23T08:26:10.193Z,83.10
2019-02-23T08:29:18.803Z,81.20
2019-02-23T08:32:27.384Z,80.30
2019-02-23T08:35:35.882Z,79.90
2019-02-23T08:38:44.459Z,79.30
2019-02-23T08:41:53.073Z,78.80
2019-02-23T08:45:01.661Z,78.50
2019-02-23T08:48:20.539Z,79.00
2019-02-23T08:51:29.221Z,77.50
2019-02-23T08:54:37.929Z,77.30
2019-02-23T08:57:46.643Z,77.70
2019-02-23T09:00:55.250Z,77.70
2019-02-23T09:04:03.816Z,77.10
2019-02-23T09:07:12.994Z,79.00
2019-02-23T09:10:21.722Z,77.50
2019-02-23T09:13:30.369Z,79.10
2019-02-23T09:16:39.032Z,76.40
2019-02-23T09:19:47.765Z,75.20
2019-02-23T09:23:00.199Z,75.00
2019-02-23T09:26:06.650Z,73.20
2019-02-23T09:29:25.520Z,73.60
2019-02-23T09:32:35.118Z,73.90
2019-02-23T09:35:43.639Z,72.20
2019-02-23T09:39:02.483Z,71.00
2019-02-23T09:42:11.081Z,69.70
2019-02-23T09:45:19.676Z,68.10
2019-02-23T09:48:28.261Z,67.10
2019-02-23T09:51:36.857Z,66.20
2019-02-23T09:54:45.440Z,67.00
2019-02-23T09:58:04.284Z,66.10
2019-02-23T10:01:12.877Z,65.40
2019-02-23T10:04:59.673Z,64.10
2019-02-23T10:08:08.192Z,62.40
2019-02-23T10:11:16.715Z,60.30
2019-02-23T10:14:35.579Z,59.60
2019-02-23T10:17:44.068Z,59.80
2019-02-23T10:20:52.685Z,58.80
2019-02-23T10:24:01.308Z,59.00
2019-02-23T10:27:09.908Z,58.20
2019-02-23T10:30:19.743Z,58.40
2019-02-23T10:33:29.908Z,59.30
2019-02-23T10:36:38.412Z,60.10
2019-02-23T10:39:47.021Z,59.00
2019-02-23T10:42:55.509Z,58.90
2019-02-23T10:46:04.117Z,57.60
2019-02-23T10:49:22.953Z,57.40
2019-02-23T10:52:31.553Z,57.10
2019-02-23T10:55:40.033Z,56.00
2019-02-23T10:58:48.683Z,55.70
2019-02-23T11:01:57.184Z,56.40
2019-02-23T11:05:16.344Z,55.10
2019-02-23T11:08:35.301Z,53.50
2019-02-23T11:11:43.889Z,54.40
2019-02-23T11:14:52.458Z,52.10
2019-02-23T11:18:02.882Z,51.20
2019-02-23T11:21:11.569Z,51.20
2019-02-23T11:24:20.111Z,49.30
2019-02-23T11:27:28.610Z,49.80
2019-02-23T11:30:47.722Z,47.50
2019-02-23T11:33:56.343Z,46.20
2019-02-23T11:37:05.011Z,45.70
2019-02-23T11:40:13.730Z,45.40
2019-02-23T11:43:22.637Z,44.00
2019-02-23T11:46:59.170Z,43.60
2019-02-23T11:49:52.336Z,44.60
2019-02-23T11:53:00.840Z,44.10
2019-02-23T11:56:09.481Z,44.80
2019-02-23T11:59:18.015Z,44.60
2019-02-23T12:02:26.666Z,44.20
2019-02-23T12:05:35.253Z,45.60
2019-02-23T12:08:54.255Z,46.20
2019-02-23T12:12:02.838Z,46.40
2019-02-23T12:15:11.848Z,46.50
2019-02-23T12:18:20.453Z,46.60
2019-02-23T12:21:29.041Z,47.60
2019-02-23T12:24:37.649Z,48.30
2019-02-23T12:27:46.218Z,48.40
2019-02-23T12:30:54.889Z,48.40
2019-02-23T12:34:03.378Z,48.90
2019-02-23T12:37:22.302Z,48.10
2019-02-23T12:40:30.932Z,48.70
2019-02-23T12:43:39.541Z,49.30
2019-02-23T12:46:48.172Z,49.10
2019-02-23T12:49:56.839Z,48.30
2019-02-23T12:53:05.409Z,48.90
2019-02-23T12:56:13.996Z,48.60
2019-02-23T12:59:32.974Z,48.50
2019-02-23T13:02:41.475Z,48.30
2019-02-23T13:05:49.993Z,47.30
2019-02-23T13:09:35.669Z,47.20
2019-02-23T13:13:18.211Z,47.20
2019-02-23T13:16:49.058Z,46.30
2019-02-23T13:20:34.413Z,47.50
2019-02-23T13:24:52.183Z,47.90
2019-02-23T13:28:50.282Z,47.00
2019-02-23T13:32:52.119Z,46.30
2019-02-23T13:36:41.678Z,47.00
2019-02-23T13:40:46.997Z,46.90
2019-02-23T13:44:41.096Z,46.80
2019-02-23T13:49:08.609Z,47.20
2019-02-23T13:53:22.903Z,46.70
2019-02-23T13:57:09.378Z,46.40
2019-02-23T14:01:22.302Z,46.60
2019-02-23T14:05:15.551Z,46.30
2019-02-23T14:09:17.454Z,46.10
2019-02-23T14:12:46.963Z,45.30
2019-02-23T14:16:26.917Z,45.50
2019-02-23T14:20:05.102Z,45.80
2019-02-23T14:24:03.972Z,46.50
2019-02-23T14:28:14.152Z,48.20
2019-02-23T14:32:43.952Z,48.90
2019-02-23T14:36:56.934Z,48.70
2019-02-23T14:41:27.349Z,49.00
2019-02-23T14:44:56.191Z,49.70
2019-02-23T14:49:16.386Z,49.70
2019-02-23T14:53:03.690Z,50.10
2019-02-23T14:57:22.979Z,50.00
2019-02-23T15:01:54.824Z,50.50
2019-02-23T15:05:40.199Z,51.30
2019-02-23T15:09:38.808Z,51.10
2019-02-23T15:13:36.295Z,51.00
2019-02-23T15:18:12.714Z,51.60
2019-02-23T15:22:16.963Z,51.20
2019-02-23T15:26:38.696Z,51.40
2019-02-23T15:30:20.013Z,50.80
2019-02-23T15:34:40.438Z,50.70
2019-02-23T15:38:35.749Z,50.70
2019-02-23T15:42:42.997Z,50.40
2019-02-23T15:46:41.544Z,50.40
2019-02-23T15:50:12.261Z,50.60
2019-02-23T15:53:10.812Z,50.30
2019-02-23T15:56:19.386Z,50.30
2019-02-23T15:59:28.028Z,50.20
2019-02-23T16:02:36.545Z,50.70
2019-02-23T16:05:45.089Z,51.30
2019-02-23T16:09:04.023Z,51.50
2019-02-23T16:12:12.486Z,51.30
2019-02-23T16:15:20.969Z,50.70
2019-02-23T16:18:29.523Z,50.80
2019-02-23T16:21:38.140Z,51.10
2019-02-23T16:24:46.641Z,51.80
2019-02-23T16:28:05.810Z,52.40
2019-02-23T16:31:14.413Z,52.80
2019-02-23T16:34:23.053Z,52.80
2019-02-23T16:37:31.568Z,53.00
2019-02-23T16:40:40.188Z,54.00
2019-02-23T16:43:48.857Z,54.40
2019-02-23T16:46:57.323Z,54.80
2019-02-23T16:50:16.193Z,54.70
2019-02-23T16:53:24.663Z,56.00
2019-02-23T16:56:33.208Z,56.90
2019-02-23T16:59:41.831Z,57.00
2019-02-23T17:02:50.434Z,57.00
2019-02-23T17:06:00.138Z,57.10
2019-02-23T17:09:10.512Z,57.70
2019-02-23T17:12:19.225Z,58.00
2019-02-23T17:15:27.812Z,58.40
2019-02-23T17:18:36.402Z,58.60
2019-02-23T17:21:45.075Z,58.30
2019-02-23T17:24:53.591Z,58.50
2019-02-23T17:28:12.330Z,58.70
2019-02-23T17:31:20.941Z,58.00
2019-02-23T17:34:29.556Z,58.00
2019-02-23T17:37:38.148Z,59.20
2019-02-23T17:40:46.817Z,58.80
2019-02-23T17:43:56.745Z,58.70
2019-02-23T17:47:05.758Z,58.90
2019-02-23T17:50:24.593Z,59.40
2019-02-23T17:53:33.084Z,59.50
2019-02-23T17:56:41.688Z,59.60
2019-02-23T17:59:50.599Z,59.50
2019-02-23T18:02:59.205Z,59.80
2019-02-23T18:06:07.789Z,60.00
2019-02-23T18:09:16.499Z,60.70
2019-02-23T18:12:25.140Z,60.80
2019-02-23T18:15:33.749Z,60.80
2019-02-23T18:18:52.670Z,60.70
2019-02-23T18:22:01.262Z,61.10
2019-02-23T18:25:10.137Z,61.00
2019-02-23T18:28:18.662Z,61.50
2019-02-23T18:31:27.249Z,61.70
2019-02-23T18:34:35.762Z,61.00
2019-02-23T18:37:54.445Z,61.90
2019-02-23T18:41:03.165Z,61.50
2019-02-23T18:44:11.811Z,61.60
2019-02-23T18:47:20.384Z,62.40
2019-02-23T18:50:28.942Z,62.60
2019-02-23T18:53:37.557Z,62.70
2019-02-23T18:56:46.135Z,62.30
2019-02-23T19:00:06.116Z,61.30
2019-02-23T19:03:14.656Z,62.30
2019-02-23T19:06:23.237Z,61.60
2019-02-23T19:09:31.974Z,62.60
2019-02-23T19:12:50.686Z,62.30
2019-02-23T19:15:59.200Z,60.40
2019-02-23T19:19:07.800Z,61.30
2019-02-23T19:22:16.425Z,61.00
2019-02-23T19:25:25.110Z,60.40
2019-02-23T19:28:33.778Z,60.30
2019-02-23T19:31:42.342Z,60.10
2019-02-23T19:35:01.341Z,61.20
2019-02-23T19:38:09.925Z,60.30
2019-02-23T19:41:19.615Z,59.70
2019-02-23T19:44:28.213Z,59.70
2019-02-23T19:47:47.044Z,58.90
2019-02-23T19:51:03.616Z,59.20
2019-02-23T19:54:13.739Z,60.00
2019-02-23T19:57:22.488Z,59.10
2019-02-23T20:00:31.188Z,59.80
2019-02-23T20:03:39.822Z,59.90
2019-02-23T20:06:48.417Z,60.00
2019-02-23T20:10:08.438Z,60.20
2019-02-23T20:13:17.130Z,59.90
2019-02-23T20:16:25.661Z,59.70
2019-02-23T20:19:34.572Z,59.90
2019-02-23T20:22:43.078Z,60.00
2019-02-23T20:25:51.748Z,59.60
2019-02-23T20:29:10.702Z,59.70
2019-02-23T20:32:17.714Z,59.10
2019-02-23T20:35:26.346Z,58.90
2019-02-23T20:38:35.141Z,59.10
2019-02-23T20:41:43.734Z,59.20
2019-02-23T20:44:52.237Z,59.60
2019-02-23T20:48:01.833Z,59.70
2019-02-23T20:51:10.440Z,59.60
2019-02-23T20:54:18.913Z,59.80
2019-02-23T20:57:27.507Z,60.00
2019-02-23T21:00:36.215Z,59.30
2019-02-23T21:03:46.414Z,59.90
2019-02-23T21:07:06.336Z,60.50
2019-02-23T21:10:16.173Z,61.30
2019-02-23T21:13:24.753Z,61.60
2019-02-23T21:16:45.760Z,61.60
2019-02-23T21:19:54.334Z,61.80
2019-02-23T21:23:02.927Z,61.80
2019-02-23T21:26:11.620Z,62.00
2019-02-23T21:29:20.362Z,62.80
2019-02-23T21:32:28.949Z,64.00
2019-02-23T21:35:37.458Z,64.20
2019-02-23T21:38:56.715Z,65.30
2019-02-23T21:42:15.617Z,65.00
2019-02-23T21:45:24.203Z,65.00
2019-02-23T21:48:32.852Z,65.30
2019-02-23T21:51:41.431Z,65.80
2019-02-23T21:54:50.252Z,66.50
2019-02-23T21:58:00.000Z,66.60
2019-02-23T22:01:18.976Z,66.60
2019-02-23T22:04:27.468Z,67.10
2019-02-23T22:07:39.250Z,67.80
2019-02-23T22:10:47.940Z,67.70
2019-02-23T22:13:56.470Z,66.90
2019-02-23T22:17:15.145Z,66.80
2019-02-23T22:20:23.646Z,67.90
2019-02-23T22:23:32.255Z,67.80
2019-02-23T22:26:40.828Z,68.20
2019-02-23T22:29:49.554Z,67.90
2019-02-23T22:32:58.153Z,68.20
2019-02-23T22:36:16.886Z,68.50
2019-02-23T22:39:25.545Z,69.40
2019-02-23T22:42:34.027Z,69.80
2019-02-23T22:45:42.628Z,70.00
2019-02-23T22:48:51.283Z,70.30
2019-02-23T22:51:59.849Z,70.50
2019-02-23T22:55:18.706Z,71.30
2019-02-23T22:58:27.790Z,71.40
2019-02-23T23:01:47.181Z,71.70
2019-02-23T23:04:55.680Z,71.70
2019-02-23T23:08:04.278Z,72.00
2019-02-23T23:11:12.911Z,73.00
2019-02-23T23:14:21.486Z,72.60
2019-02-23T23:17:29.994Z,73.70
2019-02-23T23:20:38.707Z,73.80
2019-02-23T23:23:47.282Z,74.20
2019-02-23T23:27:06.266Z,74.70
2019-02-23T23:30:15.146Z,75.10
2019-02-23T23:33:23.722Z,75.60
2019-02-23T23:36:32.331Z,75.50
2019-02-23T23:39:41.194Z,76.00
2019-02-23T23:42:57.827Z,76.70
2019-02-23T23:46:05.463Z,77.20
2019-02-23T23:49:14.012Z,77.20
2019-02-23T23:52:22.690Z,77.50
2019-02-23T23:55:31.332Z,78.80
2019-02-23T23:58:40.005Z,78.60
